RYR50XY LFMU-EGGW
Flight info
| Callsign | RYR50XY |
|---|---|
| Flight time | N/A |
| Altitude | 36000 |
| Route | FJR DCT NG DCT MOLEN DCT MTL DCT ETREK DCT MADOT DCT MOPEM DCT CACHI DCT AVLON DCT OKRIX DCT BRY DCT CLM DCT KOPOR DCT PIREG DCT SOSUN DCT SUBIP UM733 UNDUG |
| Aircraft | B738/M-SDE3FGILRWY/SB1 |
Departure
| Time | 2026-05-04 18:14 |
|---|---|
| Airport | Béziers Vias airport (LFMU) |
Arrival
| Time | N/A |
|---|---|
| Airport | London Luton Airport (EGGW) |
| Time | Latitude | Longitude | Altitude | Speed | Heading |
|---|---|---|---|---|---|
| 2026-05-04 17:53 | 43.32139 | 3.35344 | 57 ft | 0 kts | 184° |
| 2026-05-04 18:09 | 43.32142 | 3.35316 | 52 ft | 4 kts | 339° |
| 2026-05-04 18:10 | 43.32187 | 3.35317 | 50 ft | 7 kts | 9° |
| 2026-05-04 18:10 | 43.32236 | 3.35327 | 58 ft | 7 kts | 5° |
| 2026-05-04 18:10 | 43.32299 | 3.35334 | 58 ft | 11 kts | 1° |
| 2026-05-04 18:10 | 43.32350 | 3.35242 | 56 ft | 17 kts | 274° |
| 2026-05-04 18:11 | 43.32361 | 3.35045 | 56 ft | 24 kts | 274° |
| 2026-05-04 18:11 | 43.32375 | 3.34795 | 58 ft | 28 kts | 274° |
| 2026-05-04 18:11 | 43.32390 | 3.34531 | 57 ft | 27 kts | 275° |
| 2026-05-04 18:11 | 43.32402 | 3.34311 | 60 ft | 14 kts | 274° |
| 2026-05-04 18:12 | 43.32382 | 3.34213 | 57 ft | 8 kts | 275° |
| 2026-05-04 18:12 | 43.32405 | 3.34227 | 58 ft | 5 kts | 85° |
| 2026-05-04 18:12 | 43.32405 | 3.34254 | 59 ft | 0 kts | 92° |
| 2026-05-04 18:13 | 43.32398 | 3.34379 | 56 ft | 46 kts | 95° |
| 2026-05-04 18:13 | 43.32270 | 3.36599 | 216 ft | 166 kts | 95° |
| 2026-05-04 18:14 | 43.32201 | 3.38224 | 982 ft | 173 kts | 96° |
| 2026-05-04 18:14 | 43.32236 | 3.39905 | 1717 ft | 192 kts | 78° |
| 2026-05-04 18:14 | 43.33018 | 3.41586 | 2021 ft | 226 kts | 51° |
| 2026-05-04 18:15 | 43.35274 | 3.44970 | 2999 ft | 259 kts | 52° |
| 2026-05-04 18:15 | 43.37737 | 3.48855 | 4614 ft | 274 kts | 53° |
| 2026-05-04 18:15 | 43.38980 | 3.50864 | 5526 ft | 277 kts | 53° |
| 2026-05-04 18:16 | 43.40231 | 3.52910 | 6391 ft | 282 kts | 52° |
| 2026-05-04 18:16 | 43.41503 | 3.55002 | 7190 ft | 288 kts | 53° |
| 2026-05-04 18:16 | 43.42798 | 3.57141 | 7986 ft | 293 kts | 52° |
| 2026-05-04 18:17 | 43.45132 | 3.61787 | 9637 ft | 300 kts | 65° |
| 2026-05-04 18:17 | 43.46041 | 3.64363 | 10343 ft | 308 kts | 66° |
| 2026-05-04 18:17 | 43.48009 | 3.70097 | 11040 ft | 347 kts | 66° |
| 2026-05-04 18:18 | 43.49065 | 3.73109 | 11796 ft | 352 kts | 66° |
| 2026-05-04 18:18 | 43.50145 | 3.76151 | 12591 ft | 355 kts | 66° |
| 2026-05-04 18:18 | 43.51245 | 3.79223 | 13348 ft | 360 kts | 65° |
| 2026-05-04 18:18 | 43.52363 | 3.82335 | 14016 ft | 367 kts | 67° |
| 2026-05-04 18:19 | 43.54669 | 3.88758 | 15344 ft | 376 kts | 67° |
| 2026-05-04 18:19 | 43.55835 | 3.92009 | 15984 ft | 381 kts | 67° |
| 2026-05-04 18:19 | 43.57014 | 3.95301 | 16704 ft | 383 kts | 66° |
| 2026-05-04 18:20 | 43.58320 | 3.98515 | 17426 ft | 389 kts | 55° |
| 2026-05-04 18:20 | 43.60083 | 4.01375 | 18105 ft | 393 kts | 49° |
| 2026-05-04 18:20 | 43.61955 | 4.04162 | 18716 ft | 398 kts | 49° |
| 2026-05-04 18:20 | 43.63855 | 4.06966 | 19271 ft | 402 kts | 49° |
| 2026-05-04 18:21 | 43.65760 | 4.09807 | 19859 ft | 405 kts | 49° |
| 2026-05-04 18:21 | 43.67673 | 4.12701 | 20426 ft | 409 kts | 50° |
| 2026-05-04 18:21 | 43.69589 | 4.15631 | 20971 ft | 413 kts | 50° |
| 2026-05-04 18:21 | 43.71520 | 4.18604 | 21506 ft | 417 kts | 50° |
| 2026-05-04 18:22 | 43.73463 | 4.21608 | 22006 ft | 422 kts | 50° |
| 2026-05-04 18:22 | 43.75433 | 4.24659 | 22487 ft | 428 kts | 50° |
| 2026-05-04 18:22 | 43.77421 | 4.27740 | 23009 ft | 431 kts | 50° |
| 2026-05-04 18:22 | 43.79428 | 4.30852 | 23529 ft | 435 kts | 50° |
| 2026-05-04 18:23 | 43.81454 | 4.33995 | 23956 ft | 439 kts | 50° |
| 2026-05-04 18:23 | 43.83504 | 4.37139 | 24415 ft | 442 kts | 47° |
| 2026-05-04 18:23 | 43.85807 | 4.39899 | 24855 ft | 446 kts | 36° |
| 2026-05-04 18:23 | 43.88484 | 4.42183 | 25311 ft | 449 kts | 26° |
| 2026-05-04 18:24 | 43.91335 | 4.43846 | 25742 ft | 451 kts | 20° |
| 2026-05-04 18:24 | 43.94283 | 4.45366 | 26176 ft | 454 kts | 19° |
| 2026-05-04 18:24 | 43.97254 | 4.46883 | 26623 ft | 456 kts | 20° |
| 2026-05-04 18:24 | 44.00223 | 4.48439 | 27069 ft | 458 kts | 20° |
| 2026-05-04 18:25 | 44.03207 | 4.50043 | 27466 ft | 461 kts | 21° |
| 2026-05-04 18:25 | 44.06198 | 4.51667 | 27849 ft | 464 kts | 21° |
| 2026-05-04 18:25 | 44.09220 | 4.53289 | 28231 ft | 466 kts | 20° |
| 2026-05-04 18:25 | 44.12257 | 4.54899 | 28610 ft | 469 kts | 20° |
| 2026-05-04 18:26 | 44.15319 | 4.56517 | 28997 ft | 471 kts | 20° |
| 2026-05-04 18:26 | 44.18393 | 4.58143 | 29333 ft | 474 kts | 20° |
| 2026-05-04 18:26 | 44.21483 | 4.59781 | 29691 ft | 477 kts | 20° |
| 2026-05-04 18:26 | 44.24598 | 4.61437 | 30023 ft | 480 kts | 20° |
| 2026-05-04 18:27 | 44.27723 | 4.63102 | 30309 ft | 482 kts | 20° |
| 2026-05-04 18:27 | 44.30861 | 4.64777 | 30591 ft | 484 kts | 20° |
| 2026-05-04 18:27 | 44.34011 | 4.66461 | 30896 ft | 486 kts | 20° |
| 2026-05-04 18:27 | 44.37164 | 4.68149 | 31285 ft | 485 kts | 20° |
| 2026-05-04 18:28 | 44.40311 | 4.69835 | 31692 ft | 483 kts | 20° |
| 2026-05-04 18:28 | 44.43451 | 4.71519 | 32048 ft | 483 kts | 20° |
| 2026-05-04 18:28 | 44.46590 | 4.73204 | 32373 ft | 484 kts | 20° |
| 2026-05-04 18:28 | 44.49732 | 4.74892 | 32707 ft | 484 kts | 20° |
| 2026-05-04 18:29 | 44.52926 | 4.76358 | 33066 ft | 482 kts | 11° |
| 2026-05-04 18:29 | 44.56225 | 4.77094 | 33363 ft | 479 kts | 1° |
| 2026-05-04 18:29 | 44.59545 | 4.77175 | 33688 ft | 475 kts | 352° |
| 2026-05-04 18:29 | 44.62804 | 4.76599 | 34055 ft | 470 kts | 346° |
| 2026-05-04 18:30 | 44.69232 | 4.75079 | 34671 ft | 468 kts | 346° |
| 2026-05-04 18:30 | 44.72442 | 4.74314 | 34939 ft | 467 kts | 346° |
| 2026-05-04 18:30 | 44.75647 | 4.73568 | 35226 ft | 467 kts | 346° |
| 2026-05-04 18:31 | 44.78807 | 4.72850 | 35536 ft | 465 kts | 346° |
| 2026-05-04 18:31 | 44.81999 | 4.72135 | 35826 ft | 464 kts | 346° |
| 2026-05-04 18:31 | 44.85191 | 4.71424 | 36020 ft | 466 kts | 346° |
| 2026-05-04 18:32 | 44.91639 | 4.69988 | 36016 ft | 470 kts | 346° |
| 2026-05-04 18:32 | 44.98059 | 4.68560 | 36007 ft | 463 kts | 346° |
| 2026-05-04 18:33 | 45.04404 | 4.67140 | 36015 ft | 461 kts | 346° |
| 2026-05-04 18:33 | 45.10746 | 4.65713 | 36013 ft | 462 kts | 346° |
| 2026-05-04 18:34 | 45.17089 | 4.64286 | 36005 ft | 462 kts | 346° |
| 2026-05-04 18:34 | 45.23430 | 4.62849 | 36001 ft | 462 kts | 346° |
| 2026-05-04 18:35 | 45.29737 | 4.61401 | 36011 ft | 463 kts | 346° |
| 2026-05-04 18:35 | 45.36097 | 4.59939 | 35995 ft | 463 kts | 346° |
| 2026-05-04 18:36 | 45.42468 | 4.58473 | 35986 ft | 464 kts | 346° |
| 2026-05-04 18:36 | 45.48845 | 4.57002 | 35975 ft | 465 kts | 346° |
| 2026-05-04 18:37 | 45.55226 | 4.55527 | 35979 ft | 465 kts | 346° |
| 2026-05-04 18:37 | 45.61610 | 4.54048 | 35978 ft | 466 kts | 346° |
| 2026-05-04 18:38 | 45.68014 | 4.52561 | 35974 ft | 466 kts | 346° |
| 2026-05-04 18:38 | 45.74417 | 4.51071 | 35983 ft | 466 kts | 346° |
| 2026-05-04 18:39 | 45.80822 | 4.49581 | 35982 ft | 467 kts | 346° |
| 2026-05-04 18:39 | 45.87233 | 4.48087 | 35973 ft | 467 kts | 346° |
| 2026-05-04 18:40 | 45.93640 | 4.46589 | 35975 ft | 467 kts | 346° |
| 2026-05-04 18:40 | 46.00044 | 4.45089 | 35975 ft | 466 kts | 346° |
| 2026-05-04 18:41 | 46.06440 | 4.43587 | 35966 ft | 466 kts | 346° |
| 2026-05-04 18:41 | 46.12839 | 4.42080 | 35961 ft | 466 kts | 346° |
| 2026-05-04 18:42 | 46.19187 | 4.40581 | 35961 ft | 465 kts | 346° |
| 2026-05-04 18:42 | 46.25576 | 4.39070 | 35980 ft | 465 kts | 347° |
| 2026-05-04 18:43 | 46.31926 | 4.37337 | 35968 ft | 463 kts | 343° |
| 2026-05-04 18:43 | 46.38176 | 4.35114 | 35960 ft | 462 kts | 342° |
| 2026-05-04 18:44 | 46.44407 | 4.32839 | 35937 ft | 462 kts | 342° |
| 2026-05-04 18:44 | 46.50645 | 4.30614 | 35945 ft | 461 kts | 342° |
| 2026-05-04 18:45 | 46.56845 | 4.28430 | 35943 ft | 460 kts | 342° |
| 2026-05-04 18:45 | 46.63021 | 4.26255 | 35944 ft | 459 kts | 342° |
| 2026-05-04 18:46 | 46.69225 | 4.24063 | 35948 ft | 459 kts | 342° |
| 2026-05-04 18:46 | 46.75426 | 4.21866 | 35943 ft | 458 kts | 342° |
| 2026-05-04 18:47 | 46.81615 | 4.19667 | 35933 ft | 458 kts | 342° |
| 2026-05-04 18:47 | 46.87803 | 4.17463 | 35938 ft | 457 kts | 342° |
| 2026-05-04 18:48 | 46.93986 | 4.15256 | 35950 ft | 457 kts | 342° |
| 2026-05-04 18:48 | 47.00171 | 4.13043 | 35941 ft | 458 kts | 342° |
| 2026-05-04 18:49 | 47.06357 | 4.10812 | 35936 ft | 457 kts | 341° |
| 2026-05-04 18:49 | 47.12293 | 4.07651 | 35946 ft | 453 kts | 333° |
| 2026-05-04 18:50 | 47.18040 | 4.04098 | 35924 ft | 453 kts | 333° |
| 2026-05-04 18:50 | 47.23859 | 4.00548 | 35930 ft | 453 kts | 334° |
| 2026-05-04 18:51 | 47.29687 | 3.97061 | 35931 ft | 452 kts | 334° |
| 2026-05-04 18:51 | 47.35480 | 3.93609 | 35933 ft | 452 kts | 334° |
| 2026-05-04 18:52 | 47.41306 | 3.90128 | 35933 ft | 451 kts | 334° |
| 2026-05-04 18:52 | 47.47126 | 3.86639 | 35927 ft | 451 kts | 334° |
| 2026-05-04 18:53 | 47.52837 | 3.83206 | 35928 ft | 451 kts | 334° |
| 2026-05-04 18:53 | 47.58661 | 3.79704 | 35920 ft | 452 kts | 334° |
| 2026-05-04 18:54 | 47.64256 | 3.76350 | 35926 ft | 452 kts | 334° |
| 2026-05-04 18:54 | 47.70087 | 3.72849 | 35928 ft | 452 kts | 334° |
| 2026-05-04 18:55 | 47.75783 | 3.69417 | 35926 ft | 453 kts | 334° |
| 2026-05-04 18:55 | 47.84546 | 3.64120 | 35925 ft | 453 kts | 334° |
| 2026-05-04 18:56 | 47.89404 | 3.61175 | 35928 ft | 454 kts | 334° |
| 2026-05-04 18:56 | 47.95246 | 3.57626 | 35928 ft | 454 kts | 334° |
| 2026-05-04 18:57 | 48.01096 | 3.54051 | 35923 ft | 454 kts | 334° |
| 2026-05-04 18:57 | 48.06846 | 3.50511 | 35922 ft | 455 kts | 334° |
| 2026-05-04 18:58 | 48.12681 | 3.46909 | 35927 ft | 455 kts | 334° |
| 2026-05-04 18:58 | 48.18518 | 3.43299 | 35928 ft | 455 kts | 334° |
| 2026-05-04 18:59 | 48.24370 | 3.39672 | 35936 ft | 455 kts | 334° |
| 2026-05-04 18:59 | 48.30211 | 3.36042 | 35928 ft | 455 kts | 334° |
| 2026-05-04 19:00 | 48.36057 | 3.32401 | 35928 ft | 454 kts | 334° |
| 2026-05-04 19:00 | 48.41875 | 3.28765 | 35929 ft | 453 kts | 333° |
| 2026-05-04 19:01 | 48.47686 | 3.25073 | 35931 ft | 453 kts | 333° |
| 2026-05-04 19:01 | 48.53480 | 3.21365 | 35926 ft | 452 kts | 333° |
| 2026-05-04 19:02 | 48.59267 | 3.17658 | 35935 ft | 452 kts | 333° |
| 2026-05-04 19:02 | 48.64981 | 3.13992 | 35933 ft | 451 kts | 333° |
| 2026-05-04 19:03 | 48.70758 | 3.10277 | 35942 ft | 451 kts | 333° |
| 2026-05-04 19:03 | 48.76533 | 3.06553 | 35929 ft | 451 kts | 333° |
| 2026-05-04 19:04 | 48.82311 | 3.02820 | 35936 ft | 452 kts | 333° |
| 2026-05-04 19:04 | 48.87940 | 2.98664 | 35943 ft | 448 kts | 326° |
| 2026-05-04 19:05 | 48.93309 | 2.93875 | 35927 ft | 448 kts | 325° |
| 2026-05-04 19:05 | 48.98666 | 2.89046 | 35930 ft | 448 kts | 325° |
| 2026-05-04 19:06 | 49.04058 | 2.84258 | 35928 ft | 449 kts | 326° |
| 2026-05-04 19:06 | 49.09460 | 2.79493 | 35947 ft | 449 kts | 326° |
| 2026-05-04 19:07 | 49.14758 | 2.74814 | 35935 ft | 449 kts | 326° |
| 2026-05-04 19:07 | 49.20156 | 2.70034 | 35937 ft | 448 kts | 326° |
| 2026-05-04 19:08 | 49.25542 | 2.65249 | 35944 ft | 448 kts | 326° |
| 2026-05-04 19:08 | 49.30932 | 2.60447 | 35934 ft | 448 kts | 326° |
| 2026-05-04 19:09 | 49.36042 | 2.55127 | 35935 ft | 440 kts | 311° |
| 2026-05-04 19:09 | 49.40201 | 2.48383 | 35944 ft | 437 kts | 309° |
| 2026-05-04 19:10 | 49.44319 | 2.41520 | 35954 ft | 437 kts | 309° |
| 2026-05-04 19:10 | 49.48468 | 2.34686 | 35960 ft | 437 kts | 309° |
| 2026-05-04 19:11 | 49.52628 | 2.27881 | 35963 ft | 437 kts | 310° |
| 2026-05-04 19:11 | 49.56794 | 2.21066 | 35970 ft | 437 kts | 310° |
| 2026-05-04 19:12 | 49.63040 | 2.10817 | 35960 ft | 437 kts | 310° |
| 2026-05-04 19:13 | 49.67200 | 2.03964 | 35955 ft | 438 kts | 310° |
| 2026-05-04 19:13 | 49.71361 | 1.97091 | 35953 ft | 438 kts | 310° |
| 2026-05-04 19:14 | 49.75520 | 1.90204 | 35950 ft | 439 kts | 310° |
| 2026-05-04 19:14 | 49.79680 | 1.83295 | 35948 ft | 439 kts | 310° |
| 2026-05-04 19:15 | 49.83837 | 1.76373 | 35949 ft | 440 kts | 310° |
| 2026-05-04 19:15 | 49.88000 | 1.69420 | 35962 ft | 440 kts | 310° |
| 2026-05-04 19:16 | 49.92167 | 1.62443 | 35964 ft | 441 kts | 310° |
| 2026-05-04 19:16 | 49.96334 | 1.55450 | 35973 ft | 441 kts | 310° |
| 2026-05-04 19:17 | 50.00638 | 1.48632 | 35969 ft | 444 kts | 315° |
| 2026-05-04 19:17 | 50.05312 | 1.42343 | 35972 ft | 445 kts | 317° |
| 2026-05-04 19:18 | 50.10021 | 1.36090 | 35981 ft | 444 kts | 316° |
| 2026-05-04 19:18 | 50.14579 | 1.29929 | 35944 ft | 426 kts | 316° |
| 2026-05-04 19:18 | 50.16802 | 1.26896 | 35956 ft | 412 kts | 316° |
| 2026-05-04 19:19 | 50.18923 | 1.23993 | 35957 ft | 402 kts | 316° |
| 2026-05-04 19:19 | 50.23111 | 1.18233 | 35780 ft | 406 kts | 316° |
| 2026-05-04 19:19 | 50.25203 | 1.15349 | 35427 ft | 407 kts | 316° |
| 2026-05-04 19:20 | 50.27323 | 1.12429 | 35035 ft | 404 kts | 315° |
| 2026-05-04 19:20 | 50.29426 | 1.09530 | 34666 ft | 403 kts | 315° |
| 2026-05-04 19:20 | 50.31524 | 1.06633 | 34233 ft | 403 kts | 315° |
| 2026-05-04 19:20 | 50.33627 | 1.03727 | 33787 ft | 403 kts | 315° |
| 2026-05-04 19:21 | 50.35722 | 1.00828 | 33287 ft | 402 kts | 315° |
| 2026-05-04 19:21 | 50.37812 | 0.97931 | 32803 ft | 402 kts | 315° |
| 2026-05-04 19:21 | 50.39907 | 0.95025 | 32327 ft | 402 kts | 315° |
| 2026-05-04 19:21 | 50.42002 | 0.92117 | 31881 ft | 402 kts | 316° |
| 2026-05-04 19:22 | 50.44098 | 0.89203 | 31431 ft | 402 kts | 316° |
| 2026-05-04 19:22 | 50.46208 | 0.86316 | 30967 ft | 403 kts | 317° |
| 2026-05-04 19:22 | 50.48338 | 0.83486 | 30522 ft | 403 kts | 317° |
| 2026-05-04 19:22 | 50.50482 | 0.80656 | 30077 ft | 403 kts | 317° |